createdAt,value
2022-10-22T00:01:39.683Z,23.20
2022-10-22T00:04:09.146Z,23.73
2022-10-22T00:06:38.646Z,22.93
2022-10-22T00:09:08.869Z,23.47
2022-10-22T00:11:39.320Z,22.23
2022-10-22T00:14:11.641Z,24.83
2022-10-22T00:16:41.405Z,23.97
2022-10-22T00:19:13.318Z,22.10
2022-10-22T00:21:42.795Z,22.93
2022-10-22T00:24:12.322Z,22.80
2022-10-22T00:26:42.126Z,20.93
2022-10-22T00:29:14.203Z,22.40
2022-10-22T00:31:49.641Z,23.20
2022-10-22T00:34:20.163Z,21.83
2022-10-22T00:36:50.051Z,21.97
2022-10-22T00:39:20.974Z,21.73
2022-10-22T00:41:51.866Z,22.30
2022-10-22T00:44:54.363Z,21.97
2022-10-22T00:47:26.865Z,21.03
2022-10-22T00:49:56.830Z,23.57
2022-10-22T00:52:26.581Z,22.67
2022-10-22T00:54:56.074Z,23.40
2022-10-22T00:57:25.811Z,21.50
2022-10-22T00:59:55.561Z,23.90
2022-10-22T01:02:27.755Z,21.93
2022-10-22T01:04:57.275Z,23.50
2022-10-22T01:07:27.740Z,25.00
2022-10-22T01:10:06.448Z,24.30
2022-10-22T01:12:44.509Z,23.07
2022-10-22T01:15:20.954Z,22.50
2022-10-22T01:17:58.476Z,23.30
2022-10-22T01:20:47.339Z,21.73
2022-10-22T01:23:45.741Z,22.00
2022-10-22T01:26:20.752Z,21.80
2022-10-22T01:28:59.237Z,21.23
2022-10-22T01:31:30.538Z,23.30
2022-10-22T01:34:00.901Z,22.87
2022-10-22T01:36:31.094Z,24.27
2022-10-22T01:39:01.910Z,23.93
2022-10-22T01:41:31.552Z,23.10
2022-10-22T01:44:03.567Z,21.60
2022-10-22T01:46:33.418Z,22.43
2022-10-22T01:49:16.140Z,23.20
2022-10-22T01:51:55.330Z,24.27
2022-10-22T01:54:33.850Z,24.20
2022-10-22T01:57:11.325Z,24.23
2022-10-22T01:59:49.997Z,23.80
2022-10-22T02:02:27.677Z,24.10
2022-10-22T02:05:01.879Z,23.63
2022-10-22T02:07:34.630Z,23.73
2022-10-22T02:10:04.381Z,23.13
2022-10-22T02:12:34.576Z,24.30
2022-10-22T02:15:08.116Z,24.30
2022-10-22T02:17:39.765Z,26.37
2022-10-22T02:20:13.063Z,25.53
2022-10-22T02:22:42.864Z,24.47
2022-10-22T02:25:13.734Z,24.90
2022-10-22T02:27:46.031Z,25.73
2022-10-22T02:30:19.937Z,24.30
2022-10-22T02:32:54.069Z,24.87
2022-10-22T02:35:25.467Z,23.90
2022-10-22T02:37:55.197Z,24.93
2022-10-22T02:40:24.813Z,23.53
2022-10-22T02:42:54.590Z,25.37
2022-10-22T02:45:27.050Z,25.20
2022-10-22T02:47:56.439Z,25.50
2022-10-22T02:50:25.896Z,25.53
2022-10-22T02:52:55.334Z,22.63
2022-10-22T02:55:24.784Z,21.57
2022-10-22T02:57:54.173Z,22.43
2022-10-22T03:00:26.204Z,23.17
2022-10-22T03:02:55.657Z,22.27
2022-10-22T03:05:25.054Z,24.80
2022-10-22T03:07:54.422Z,25.37
2022-10-22T03:10:23.800Z,25.10
2022-10-22T03:12:53.185Z,25.20
2022-10-22T03:15:22.627Z,23.80
2022-10-22T03:17:54.730Z,26.10
2022-10-22T03:20:24.403Z,23.83
2022-10-22T03:22:53.883Z,23.93
2022-10-22T03:25:25.792Z,23.63
2022-10-22T03:27:56.274Z,25.90
2022-10-22T03:30:25.766Z,24.13
2022-10-22T03:32:57.757Z,25.60
2022-10-22T03:35:27.335Z,22.63
2022-10-22T03:37:57.159Z,23.77
2022-10-22T03:40:26.628Z,23.97
2022-10-22T03:42:56.197Z,21.20
2022-10-22T03:45:25.726Z,21.77
2022-10-22T03:47:58.055Z,22.70
2022-10-22T03:50:27.559Z,22.40
2022-10-22T03:52:58.218Z,22.10
2022-10-22T03:55:27.790Z,24.10
2022-10-22T03:57:57.212Z,23.17
2022-10-22T04:00:26.703Z,22.63
2022-10-22T04:02:58.730Z,23.77
2022-10-22T04:05:28.368Z,23.53
2022-10-22T04:07:57.881Z,22.57
2022-10-22T04:10:27.350Z,23.00
2022-10-22T04:12:59.102Z,23.73
2022-10-22T04:15:29.150Z,22.20
2022-10-22T04:18:01.454Z,23.50
2022-10-22T04:20:30.931Z,24.80
2022-10-22T04:23:00.382Z,25.10
2022-10-22T04:25:29.816Z,25.70
2022-10-22T04:27:59.285Z,24.13
2022-10-22T04:30:29.017Z,25.30
2022-10-22T04:33:01.110Z,27.97
2022-10-22T04:35:30.639Z,30.30
2022-10-22T04:38:00.560Z,30.73
2022-10-22T04:40:30.060Z,30.73
2022-10-22T04:42:59.816Z,30.57
2022-10-22T04:45:29.327Z,32.50
2022-10-22T04:48:01.418Z,32.30
2022-10-22T04:50:31.253Z,36.40
2022-10-22T04:53:00.673Z,31.47
2022-10-22T04:58:01.404Z,35.10
2022-10-22T05:00:31.207Z,34.00
2022-10-22T05:03:03.256Z,31.40
2022-10-22T05:05:32.750Z,32.37
2022-10-22T05:08:02.222Z,31.47
2022-10-22T05:10:31.700Z,30.37
2022-10-22T05:13:01.157Z,31.23
2022-10-22T05:15:30.695Z,32.87
2022-10-22T05:18:02.772Z,31.57
2022-10-22T05:20:32.256Z,32.30
2022-10-22T05:23:01.709Z,32.97
2022-10-22T05:25:31.139Z,31.77
2022-10-22T05:28:00.658Z,33.00
2022-10-22T05:30:30.221Z,32.40
2022-10-22T05:32:59.890Z,32.37
2022-10-22T05:35:31.970Z,33.10
2022-10-22T05:38:01.463Z,37.50
2022-10-22T05:40:31.462Z,32.30
2022-10-22T05:43:01.542Z,34.87
2022-10-22T05:45:32.062Z,36.67
2022-10-22T05:48:01.747Z,36.87
2022-10-22T05:50:34.026Z,37.57
2022-10-22T05:53:03.485Z,31.90
2022-10-22T05:55:36.900Z,35.33
2022-10-22T05:58:06.514Z,35.77
2022-10-22T06:00:36.744Z,34.07
2022-10-22T06:03:07.391Z,36.17
2022-10-22T06:05:40.702Z,36.10
2022-10-22T06:08:15.502Z,37.00
2022-10-22T06:10:47.640Z,37.83
2022-10-22T06:13:17.103Z,34.97
2022-10-22T06:15:46.633Z,35.87
2022-10-22T06:18:17.080Z,35.17
2022-10-22T06:20:49.199Z,35.60
2022-10-22T06:23:19.104Z,35.60
2022-10-22T06:25:58.900Z,35.40
2022-10-22T06:28:29.226Z,33.33
2022-10-22T06:31:00.317Z,31.63
2022-10-22T06:33:30.589Z,34.43
2022-10-22T06:36:10.447Z,31.93
2022-10-22T06:38:40.181Z,33.57
2022-10-22T06:41:12.114Z,33.20
2022-10-22T06:43:42.354Z,32.77
2022-10-22T06:46:14.873Z,31.90
2022-10-22T06:48:51.915Z,31.23
2022-10-22T06:51:24.013Z,30.73
2022-10-22T06:53:54.571Z,33.23
2022-10-22T06:56:26.496Z,32.77
2022-10-22T06:58:58.057Z,32.23
2022-10-22T07:01:29.666Z,31.27
2022-10-22T07:03:59.526Z,31.10
2022-10-22T07:06:32.226Z,27.77
2022-10-22T07:09:02.593Z,31.20
2022-10-22T07:11:35.325Z,29.20
2022-10-22T07:14:04.774Z,29.13
2022-10-22T07:16:34.254Z,29.63
2022-10-22T07:19:03.815Z,29.50
2022-10-22T07:21:35.876Z,29.70
2022-10-22T07:24:05.446Z,29.60
2022-10-22T07:26:34.866Z,29.27
2022-10-22T07:29:04.577Z,29.27
2022-10-22T07:31:34.287Z,29.67
2022-10-22T07:34:03.785Z,31.10
2022-10-22T07:36:36.413Z,29.73
2022-10-22T07:39:07.437Z,29.40
2022-10-22T07:41:37.077Z,28.80
2022-10-22T07:44:07.146Z,29.97
2022-10-22T07:46:37.141Z,28.97
2022-10-22T07:49:06.573Z,29.43
2022-10-22T07:51:38.680Z,28.40
2022-10-22T07:54:08.286Z,27.57
2022-10-22T07:56:37.816Z,28.77
2022-10-22T07:59:07.351Z,26.33
2022-10-22T08:01:37.772Z,26.03
2022-10-22T08:04:08.381Z,25.40
2022-10-22T08:06:45.736Z,26.10
2022-10-22T08:09:17.173Z,24.10
2022-10-22T08:11:47.031Z,24.70
2022-10-22T08:14:16.464Z,27.17
2022-10-22T08:16:46.412Z,25.80
2022-10-22T08:19:19.000Z,25.83
2022-10-22T08:21:51.207Z,24.50
2022-10-22T08:24:21.647Z,24.97
2022-10-22T08:26:52.177Z,23.40
2022-10-22T08:29:22.817Z,23.60
2022-10-22T08:31:52.426Z,25.20
2022-10-22T08:34:22.097Z,25.67
2022-10-22T08:36:54.188Z,25.60
2022-10-22T08:39:23.773Z,25.50
2022-10-22T08:41:59.214Z,25.47
2022-10-22T08:44:48.004Z,24.60
2022-10-22T08:47:34.949Z,26.90
2022-10-22T08:50:04.773Z,26.87
2022-10-22T08:52:37.607Z,25.40
2022-10-22T08:55:07.886Z,26.13
2022-10-22T08:57:48.729Z,25.60
2022-10-22T09:00:24.049Z,27.77
2022-10-22T09:03:15.514Z,26.23
2022-10-22T09:08:24.030Z,25.70
2022-10-22T09:10:57.785Z,24.47
2022-10-22T09:13:27.347Z,24.83
2022-10-22T09:15:58.991Z,25.00
2022-10-22T09:18:38.850Z,26.03
2022-10-22T09:21:17.742Z,37.60
2022-10-22T09:24:01.786Z,24.77
2022-10-22T09:26:31.307Z,23.90
2022-10-22T09:29:03.264Z,21.20
2022-10-22T09:31:34.075Z,19.60
2022-10-22T09:34:07.444Z,18.50
2022-10-22T09:36:38.361Z,25.17
2022-10-22T09:39:24.917Z,21.03
2022-10-22T09:41:54.529Z,15.97
2022-10-22T09:44:24.197Z,18.30
2022-10-22T09:46:53.711Z,18.50
2022-10-22T09:49:25.163Z,16.60
2022-10-22T09:51:57.500Z,13.73
2022-10-22T09:54:41.367Z,14.07
2022-10-22T09:57:18.419Z,13.50
2022-10-22T09:59:51.439Z,10.93
2022-10-22T10:02:37.613Z,10.77
2022-10-22T10:05:09.348Z,7.50
2022-10-22T10:07:39.892Z,6.73
2022-10-22T10:10:21.982Z,7.37
2022-10-22T10:12:57.077Z,6.30
2022-10-22T10:15:31.454Z,7.50
2022-10-22T10:18:08.033Z,7.17
2022-10-22T10:20:43.632Z,8.23
2022-10-22T10:23:23.003Z,7.67
2022-10-22T10:26:01.249Z,6.93
2022-10-22T10:28:43.561Z,5.80
2022-10-22T10:31:21.314Z,7.23
2022-10-22T10:33:56.401Z,5.50
2022-10-22T10:36:32.530Z,7.37
2022-10-22T10:39:06.157Z,12.60
2022-10-22T10:41:48.358Z,7.23
2022-10-22T10:44:38.576Z,5.97
2022-10-22T10:47:16.377Z,6.20
2022-10-22T10:49:46.201Z,5.23
2022-10-22T10:52:21.314Z,4.97
2022-10-22T10:54:57.555Z,4.63
2022-10-22T10:57:36.204Z,4.00
2022-10-22T11:00:09.386Z,4.00
2022-10-22T11:02:59.765Z,3.57
2022-10-22T11:05:37.339Z,3.50
2022-10-22T11:08:10.538Z,3.00
2022-10-22T11:10:42.941Z,3.33
2022-10-22T11:13:20.750Z,5.63
2022-10-22T11:15:54.525Z,4.73
2022-10-22T11:18:28.135Z,4.83
2022-10-22T11:21:07.410Z,3.43
2022-10-22T11:23:40.534Z,4.03
2022-10-22T11:26:15.022Z,2.77
2022-10-22T11:28:50.705Z,3.07
2022-10-22T11:31:21.755Z,2.50
2022-10-22T11:34:04.995Z,2.77
2022-10-22T11:36:45.675Z,2.20
2022-10-22T11:39:34.073Z,2.23
2022-10-22T11:42:06.750Z,2.23
2022-10-22T11:44:49.284Z,2.10
2022-10-22T11:47:22.122Z,9.90
2022-10-22T11:50:00.931Z,2.60
2022-10-22T11:52:42.057Z,2.47
2022-10-22T11:55:51.616Z,3.30
2022-10-22T11:58:33.839Z,4.20
2022-10-22T12:01:28.546Z,3.40
2022-10-22T12:04:21.460Z,3.40
2022-10-22T12:06:56.988Z,2.60
2022-10-22T12:09:30.493Z,3.03
2022-10-22T12:12:06.690Z,2.93
2022-10-22T12:14:41.765Z,3.10
2022-10-22T12:17:16.477Z,3.10
2022-10-22T12:19:47.118Z,3.37
2022-10-22T12:22:20.113Z,3.10
2022-10-22T12:24:52.060Z,3.80
2022-10-22T12:27:23.148Z,3.20
2022-10-22T12:29:58.213Z,3.20
2022-10-22T12:32:40.306Z,3.97
2022-10-22T12:35:14.665Z,3.30
2022-10-22T12:37:44.385Z,3.23
2022-10-22T12:40:20.845Z,3.57
2022-10-22T12:42:54.953Z,4.77
2022-10-22T12:45:25.659Z,4.40
2022-10-22T12:47:59.469Z,3.43
2022-10-22T12:50:38.160Z,6.10
2022-10-22T12:53:08.581Z,5.20
2022-10-22T12:55:39.351Z,4.30
2022-10-22T12:58:09.353Z,4.30
2022-10-22T13:00:39.258Z,4.50
2022-10-22T13:03:26.767Z,4.07
2022-10-22T13:05:56.269Z,3.80
2022-10-22T13:08:29.563Z,3.77
2022-10-22T13:10:59.035Z,4.27
2022-10-22T13:13:34.079Z,4.43
2022-10-22T13:16:17.648Z,4.70
2022-10-22T13:18:50.398Z,3.77
2022-10-22T13:21:29.113Z,4.00
2022-10-22T13:24:01.173Z,4.70
2022-10-22T13:26:36.297Z,5.30
2022-10-22T13:29:12.448Z,3.90
2022-10-22T13:31:48.046Z,4.17
2022-10-22T13:34:22.048Z,5.00
2022-10-22T13:36:52.188Z,4.07
2022-10-22T13:39:22.688Z,3.90
2022-10-22T13:41:52.930Z,3.43
2022-10-22T13:44:22.541Z,3.10
2022-10-22T13:46:52.048Z,4.50
2022-10-22T13:49:25.209Z,3.97
2022-10-22T13:51:54.769Z,9.27
2022-10-22T13:54:25.840Z,3.63
2022-10-22T13:56:55.552Z,8.60
2022-10-22T13:59:24.949Z,14.00
2022-10-22T14:01:55.847Z,14.80
2022-10-22T14:04:27.894Z,14.80
2022-10-22T14:06:58.864Z,11.20
2022-10-22T14:09:30.801Z,4.90
2022-10-22T14:12:00.310Z,4.53
2022-10-22T14:14:29.789Z,3.40
2022-10-22T14:16:59.332Z,3.10
2022-10-22T14:19:32.139Z,4.43
2022-10-22T14:22:01.853Z,3.20
2022-10-22T14:24:31.303Z,3.90
2022-10-22T14:27:00.765Z,3.60
2022-10-22T14:29:30.211Z,4.20
2022-10-22T14:31:59.673Z,3.87
2022-10-22T14:34:31.801Z,4.10
2022-10-22T14:37:01.627Z,3.73
2022-10-22T14:39:31.147Z,3.60
2022-10-22T14:42:00.596Z,4.57
2022-10-22T14:44:30.098Z,3.90
2022-10-22T14:46:59.537Z,3.30
2022-10-22T14:49:31.577Z,3.50
2022-10-22T14:52:01.162Z,3.43
2022-10-22T14:54:30.590Z,3.70
2022-10-22T14:57:00.085Z,3.77
2022-10-22T14:59:29.578Z,4.43
2022-10-22T15:01:59.033Z,3.97
2022-10-22T15:04:31.063Z,5.80
2022-10-22T15:07:00.470Z,7.43
2022-10-22T15:09:29.954Z,6.13
2022-10-22T15:11:59.818Z,4.10
2022-10-22T15:14:31.875Z,4.00
2022-10-22T15:17:01.771Z,3.50
2022-10-22T15:19:34.896Z,3.97
2022-10-22T15:22:04.603Z,3.70
2022-10-22T15:24:34.093Z,4.00
2022-10-22T15:27:03.645Z,3.90
2022-10-22T15:29:33.234Z,3.50
2022-10-22T15:32:03.154Z,3.80
2022-10-22T15:34:37.393Z,4.50
2022-10-22T15:37:08.283Z,4.03
2022-10-22T15:39:42.016Z,4.03
2022-10-22T15:42:11.969Z,3.43
2022-10-22T15:44:41.659Z,3.97
2022-10-22T15:47:11.192Z,4.00
2022-10-22T15:49:44.432Z,3.60
2022-10-22T15:52:13.907Z,3.80
2022-10-22T15:54:43.865Z,4.00
2022-10-22T15:57:13.328Z,4.47
2022-10-22T15:59:42.840Z,3.50
2022-10-22T16:02:13.068Z,4.40
2022-10-22T16:04:45.135Z,4.20
2022-10-22T16:07:15.630Z,4.13
2022-10-22T16:09:45.078Z,3.90
2022-10-22T16:12:17.175Z,4.70
2022-10-22T16:14:46.928Z,3.93
2022-10-22T16:17:16.572Z,3.50
2022-10-22T16:19:49.931Z,4.17
2022-10-22T16:22:19.469Z,4.50
2022-10-22T16:24:48.846Z,5.57
2022-10-22T16:27:18.580Z,4.10
2022-10-22T16:29:48.061Z,4.40
2022-10-22T16:32:17.915Z,5.60
2022-10-22T16:34:49.938Z,4.67
2022-10-22T16:37:19.468Z,4.60
2022-10-22T16:39:49.789Z,4.50
2022-10-22T16:42:19.313Z,4.50
2022-10-22T16:44:48.783Z,5.03
2022-10-22T16:47:18.295Z,4.40
2022-10-22T16:49:50.364Z,4.53
2022-10-22T16:52:19.992Z,5.00
2022-10-22T16:54:49.408Z,5.40
2022-10-22T16:57:18.883Z,4.97
2022-10-22T16:59:50.083Z,5.40
2022-10-22T17:02:19.531Z,6.37
2022-10-22T17:04:51.575Z,5.23
2022-10-22T17:07:21.022Z,4.57
2022-10-22T17:09:50.807Z,4.83
2022-10-22T17:12:20.297Z,5.60
2022-10-22T17:14:51.115Z,4.90
2022-10-22T17:17:20.692Z,5.60
2022-10-22T17:19:52.826Z,6.63
2022-10-22T17:22:22.451Z,6.90
2022-10-22T17:25:17.203Z,7.23
2022-10-22T17:27:46.777Z,8.00
2022-10-22T17:30:21.909Z,10.70
2022-10-22T17:32:55.451Z,8.07
2022-10-22T17:38:16.914Z,8.30
2022-10-22T17:40:46.430Z,8.20
2022-10-22T17:43:15.938Z,9.00
2022-10-22T17:45:45.453Z,8.17
2022-10-22T17:48:15.025Z,8.30
2022-10-22T17:50:50.403Z,9.63
2022-10-22T17:53:21.513Z,9.00
2022-10-22T17:55:50.947Z,9.17
2022-10-22T17:58:20.422Z,9.90
2022-10-22T18:00:51.274Z,8.83
2022-10-22T18:03:21.154Z,9.37
2022-10-22T18:05:53.242Z,10.03
2022-10-22T18:08:23.420Z,9.63
2022-10-22T18:10:52.884Z,10.10
2022-10-22T18:13:22.396Z,9.87
2022-10-22T18:15:56.875Z,9.47
2022-10-22T18:18:26.806Z,9.67
2022-10-22T18:21:00.548Z,9.13
2022-10-22T18:23:30.598Z,9.60
2022-10-22T18:26:00.174Z,10.20
2022-10-22T18:28:29.839Z,9.80
2022-10-22T18:30:59.266Z,8.87
2022-10-22T18:33:28.878Z,14.53
2022-10-22T18:36:06.474Z,10.40
2022-10-22T18:38:37.511Z,10.93
2022-10-22T18:41:08.786Z,9.80
2022-10-22T18:43:38.561Z,10.77
2022-10-22T18:46:09.396Z,9.80
2022-10-22T18:48:39.429Z,10.73
2022-10-22T18:51:11.994Z,10.93
2022-10-22T18:53:41.450Z,10.43
2022-10-22T18:56:12.398Z,10.77
2022-10-22T18:58:42.422Z,10.90
2022-10-22T19:01:12.521Z,11.60
2022-10-22T19:03:41.987Z,11.30
2022-10-22T19:06:15.748Z,11.30
2022-10-22T19:08:46.909Z,12.20
2022-10-22T19:11:20.950Z,11.50
2022-10-22T19:13:50.451Z,10.73
2022-10-22T19:16:23.527Z,11.80
2022-10-22T19:18:54.146Z,11.60
2022-10-22T19:21:26.209Z,12.97
2022-10-22T19:23:58.046Z,14.93
2022-10-22T19:26:28.288Z,11.77
2022-10-22T19:28:58.433Z,50.50
2022-10-22T19:31:29.869Z,15.90
2022-10-22T19:34:00.414Z,28.10
2022-10-22T19:36:34.555Z,14.67
2022-10-22T19:39:04.513Z,16.37
2022-10-22T19:41:34.895Z,13.63
2022-10-22T19:44:04.498Z,12.90
2022-10-22T19:46:34.403Z,13.00
2022-10-22T19:49:04.833Z,13.00
2022-10-22T19:51:37.746Z,13.70
2022-10-22T19:54:09.770Z,13.33
2022-10-22T19:56:41.228Z,13.23
2022-10-22T19:59:10.644Z,13.53
2022-10-22T20:01:40.714Z,12.83
2022-10-22T20:04:10.170Z,14.70
2022-10-22T20:06:42.310Z,13.53
2022-10-22T20:09:11.831Z,13.70
2022-10-22T20:11:42.092Z,13.83
2022-10-22T20:14:11.572Z,14.20
2022-10-22T20:16:41.065Z,13.77
2022-10-22T20:19:10.841Z,12.70
2022-10-22T20:21:45.980Z,13.50
2022-10-22T20:24:15.434Z,13.53
2022-10-22T20:26:47.346Z,14.17
2022-10-22T20:29:18.991Z,13.20
2022-10-22T20:31:49.107Z,13.00
2022-10-22T20:34:18.617Z,14.10
2022-10-22T20:36:50.669Z,13.33
2022-10-22T20:39:20.157Z,13.07
2022-10-22T20:41:51.946Z,13.03
2022-10-22T20:44:21.605Z,13.43
2022-10-22T20:46:51.094Z,13.00
2022-10-22T20:55:28.099Z,12.57
2022-10-22T20:57:58.040Z,13.00
2022-10-22T21:00:27.540Z,12.90
2022-10-22T21:02:57.005Z,12.53
2022-10-22T21:05:26.509Z,13.67
2022-10-22T21:07:55.916Z,13.13
2022-10-22T21:10:32.257Z,12.13
2022-10-22T21:13:02.543Z,13.90
2022-10-22T21:15:31.996Z,12.53
2022-10-22T21:18:01.382Z,12.77
2022-10-22T21:20:30.833Z,13.57
2022-10-22T21:23:00.567Z,13.87
2022-10-22T21:25:32.618Z,13.90
2022-10-22T21:28:02.193Z,13.33
2022-10-22T21:30:31.984Z,13.70
2022-10-22T21:33:01.424Z,13.43
2022-10-22T21:35:32.423Z,13.07
2022-10-22T21:38:02.917Z,13.17
2022-10-22T21:40:35.250Z,14.40
2022-10-22T21:43:04.880Z,14.13
2022-10-22T21:48:04.834Z,13.13
2022-10-22T21:50:34.595Z,15.67
2022-10-22T21:53:04.009Z,15.00
2022-10-22T21:55:40.170Z,14.30
2022-10-22T21:58:10.421Z,14.10
2022-10-22T22:00:39.924Z,14.63
2022-10-22T22:03:09.640Z,14.60
2022-10-22T22:05:39.470Z,14.53
2022-10-22T22:08:09.376Z,15.13
2022-10-22T22:13:12.057Z,15.80
2022-10-22T22:15:42.009Z,15.00
2022-10-22T22:18:11.558Z,15.40
2022-10-22T22:20:41.028Z,14.60
2022-10-22T22:23:10.541Z,16.87
2022-10-22T22:25:42.561Z,15.87
2022-10-22T22:28:13.001Z,16.70
2022-10-22T22:30:42.476Z,17.00
2022-10-22T22:33:12.542Z,16.90
2022-10-22T22:35:41.981Z,16.60
2022-10-22T22:38:11.461Z,16.03
2022-10-22T22:40:43.677Z,17.40
2022-10-22T22:43:14.699Z,17.83
2022-10-22T22:45:44.153Z,18.40
2022-10-22T22:48:13.656Z,16.90
2022-10-22T22:50:43.155Z,18.47
2022-10-22T22:53:12.649Z,18.63
2022-10-22T22:55:44.712Z,18.30
2022-10-22T22:58:14.239Z,17.10
2022-10-22T23:00:43.738Z,16.77
2022-10-22T23:03:13.237Z,17.30
2022-10-22T23:05:42.736Z,17.10
2022-10-22T23:08:12.241Z,17.37
2022-10-22T23:10:44.342Z,19.53
2022-10-22T23:13:13.811Z,19.50
2022-10-22T23:15:43.303Z,18.10
2022-10-22T23:18:12.712Z,18.70
2022-10-22T23:20:42.175Z,18.10
2022-10-22T23:23:11.609Z,18.37
2022-10-22T23:25:41.042Z,18.10
2022-10-22T23:28:13.099Z,18.80
2022-10-22T23:30:46.951Z,19.77
2022-10-22T23:33:16.394Z,19.53
2022-10-22T23:35:46.265Z,20.03
2022-10-22T23:38:15.736Z,19.03
2022-10-22T23:40:45.374Z,19.80
2022-10-22T23:43:17.442Z,18.97
2022-10-22T23:45:46.938Z,18.40
2022-10-22T23:48:16.409Z,19.73
2022-10-22T23:50:45.974Z,19.50
2022-10-22T23:53:15.420Z,19.77
2022-10-22T23:55:46.538Z,19.07
2022-10-22T23:58:19.084Z,19.00
